sim
Sign-in with your pilot id or email,
or register
Callsign
Passwort

Schedule Details

Flight Number: RYR9975 (2)
Departure: Thessaloniki International Airport (LGTS) at 16:35
Arrival: Bologna Guglielmo Marconi Airport (LIPE) at 18:35
Route: Ryanair Passenger Schedule. Enter filed route here before submitting Pirep.

Weather Information
Getting current METAR information for LGTS 211750Z 16005KT CAVOK 29/13 Q1016 NOSIG
Getting current METAR information for LIPE 211750Z 16007KT 6000 TSRA SCT025CB BKN050 24/18 Q1017

Schedule Frequency

Route Map